Decoded Metar for LZZI (ZILINA in SLOVAKIA) (IATA:N/A) | Meteo·Mobile Aviation Weather
aviador You're here:

LZZI Decoded Metar

ZILINA in SLOVAKIA
Report Time2019-04-23 08:00:00
UTC Time2019-04-23 08:28:08
Flight Rules vfr VFR
Wind120° at 10 kt
W.Decomp.*RWY 06: 5.4 kt HW 8.4 kt RCW
Visibility9999 m
Phenomena:N/A
Clouds:Few 041 Hf
Expected CloudBase > 4,000 ft AGL from Temp-Dew spread
CeilingNone
Temp14°C (ISA +1)
Dew Point04°C (51% RH)
AAT9.1°C
QNH1014 hPa
Density Alt1,224 ft
Elevation1,020 ft
Report Wrong Elevation
Raw Report
LZZI 230800Z 12010KT 070V170 9999 FEW041 14/04 Q1014=

Extra information for LZZI:More info

Metar Taf Metar & Taf Last 4 Metars F.Rules Stats Wind Profile Meteogram Temp Stats Airport Information Weather charts Add Link Nearby VenuesMetar ALERT Operation Metar Decoded Social comments